createdAt,value
2018-12-25T00:01:25.598Z,5.60
2018-12-25T00:04:13.703Z,5.60
2018-12-25T00:07:02.084Z,5.50
2018-12-25T00:09:50.440Z,5.50
2018-12-25T00:12:38.548Z,5.50
2018-12-25T00:15:07.593Z,5.50
2018-12-25T00:17:55.772Z,5.50
2018-12-25T00:20:43.944Z,5.50
2018-12-25T00:26:19.812Z,5.60
2018-12-25T00:29:07.972Z,5.60
2018-12-25T00:31:56.079Z,5.60
2018-12-25T00:34:44.231Z,5.60
2018-12-25T00:37:32.392Z,5.60
2018-12-25T00:40:01.632Z,5.60
2018-12-25T00:42:30.743Z,5.60
2018-12-25T00:44:59.640Z,5.50
2018-12-25T00:47:28.576Z,5.60
2018-12-25T00:50:16.676Z,5.60
2018-12-25T00:52:45.572Z,5.60
2018-12-25T00:55:33.749Z,5.60
2018-12-25T00:58:02.789Z,5.60
2018-12-25T01:00:50.884Z,5.60
2018-12-25T01:03:39.048Z,5.60
2018-12-25T01:06:27.233Z,5.60
2018-12-25T01:09:15.466Z,5.70
2018-12-25T01:12:03.561Z,5.70
2018-12-25T01:14:32.701Z,5.70
2018-12-25T01:17:20.813Z,5.70
2018-12-25T01:20:08.955Z,5.70
2018-12-25T01:22:57.128Z,5.70
2018-12-25T01:25:26.101Z,5.70
2018-12-25T01:27:55.058Z,5.70
2018-12-25T01:30:43.381Z,5.60
2018-12-25T01:33:31.545Z,5.60
2018-12-25T01:36:19.707Z,5.60
2018-12-25T01:39:07.801Z,5.60
2018-12-25T01:41:55.961Z,5.60
2018-12-25T01:44:44.136Z,5.60
2018-12-25T01:47:32.301Z,5.60
2018-12-25T01:50:20.705Z,5.60
2018-12-25T01:52:49.609Z,5.60
2018-12-25T01:55:38.021Z,5.60
2018-12-25T01:58:19.171Z,5.60
2018-12-25T02:00:59.585Z,5.60
2018-12-25T02:03:40.773Z,5.60
2018-12-25T02:06:21.429Z,5.60
2018-12-25T02:09:02.133Z,5.60
2018-12-25T02:11:42.921Z,5.60
2018-12-25T02:14:23.675Z,5.60
2018-12-25T02:17:04.409Z,5.60
2018-12-25T02:19:45.530Z,5.60
2018-12-25T02:22:14.441Z,5.70
2018-12-25T02:25:02.589Z,5.60
2018-12-25T02:27:50.846Z,5.60
2018-12-25T02:30:38.931Z,5.60
2018-12-25T02:33:27.125Z,5.70
2018-12-25T02:36:15.565Z,5.70
2018-12-25T02:38:44.602Z,5.60
2018-12-25T02:41:13.626Z,5.70
2018-12-25T02:43:42.590Z,5.70
2018-12-25T02:46:30.779Z,5.70
2018-12-25T02:49:18.863Z,5.60
2018-12-25T02:51:48.111Z,5.60
2018-12-25T02:54:36.283Z,5.50
2018-12-25T02:57:17.043Z,5.50
2018-12-25T02:59:46.198Z,5.50
2018-12-25T03:02:34.343Z,5.50
2018-12-25T03:05:22.492Z,5.50
2018-12-25T03:07:51.472Z,5.50
2018-12-25T03:10:39.613Z,5.60
2018-12-25T03:13:08.591Z,5.60
2018-12-25T03:15:56.786Z,5.60
2018-12-25T03:18:25.845Z,5.50
2018-12-25T03:21:14.083Z,5.50
2018-12-25T03:24:02.231Z,5.40
2018-12-25T03:26:31.195Z,5.40
2018-12-25T03:29:19.388Z,5.40
2018-12-25T03:32:07.545Z,5.40
2018-12-25T03:34:36.511Z,5.40
2018-12-25T03:37:05.911Z,5.40
2018-12-25T03:39:34.869Z,5.40
2018-12-25T03:42:03.908Z,5.40
2018-12-25T03:44:32.855Z,5.40
2018-12-25T03:47:01.876Z,5.40
2018-12-25T03:49:30.757Z,5.40
2018-12-25T03:51:59.988Z,5.40
2018-12-25T03:54:28.968Z,5.40
2018-12-25T03:56:57.996Z,5.40
2018-12-25T03:59:26.884Z,5.40
2018-12-25T04:01:55.849Z,5.40
2018-12-25T04:04:24.802Z,5.40
2018-12-25T04:06:53.799Z,5.50
2018-12-25T04:09:22.884Z,5.40
2018-12-25T04:11:51.820Z,5.40
2018-12-25T04:14:20.768Z,5.50
2018-12-25T04:16:49.736Z,5.50
2018-12-25T04:19:18.885Z,5.40
2018-12-25T04:21:47.861Z,5.50
2018-12-25T04:24:16.752Z,5.50
2018-12-25T04:26:45.652Z,5.50
2018-12-25T04:29:14.709Z,5.50
2018-12-25T04:31:43.700Z,5.40
2018-12-25T04:34:12.996Z,5.40
2018-12-25T04:36:42.337Z,5.40
2018-12-25T04:39:11.297Z,5.40
2018-12-25T04:41:40.572Z,5.40
2018-12-25T04:44:09.616Z,5.40
2018-12-25T04:46:38.792Z,5.40
2018-12-25T04:49:07.688Z,5.40
2018-12-25T04:51:36.650Z,5.30
2018-12-25T04:54:05.517Z,5.30
2018-12-25T04:56:34.497Z,5.30
2018-12-25T04:59:03.456Z,5.30
2018-12-25T05:01:32.401Z,5.40
2018-12-25T05:04:01.728Z,5.40
2018-12-25T05:06:30.665Z,5.40
2018-12-25T05:08:59.701Z,5.40
2018-12-25T05:11:28.593Z,5.40
2018-12-25T05:13:57.485Z,5.40
2018-12-25T05:16:27.433Z,5.40
2018-12-25T05:18:56.444Z,5.40
2018-12-25T05:21:25.384Z,5.40
2018-12-25T05:23:54.324Z,5.40
2018-12-25T05:26:23.377Z,5.40
2018-12-25T05:28:52.255Z,5.40
2018-12-25T05:31:21.306Z,5.50
2018-12-25T05:33:50.451Z,5.50
2018-12-25T05:36:19.671Z,5.50
2018-12-25T05:38:48.647Z,5.50
2018-12-25T05:41:17.510Z,5.50
2018-12-25T05:43:46.479Z,5.50
2018-12-25T05:46:15.351Z,5.60
2018-12-25T05:48:44.303Z,5.50
2018-12-25T05:51:13.287Z,5.50
2018-12-25T05:53:42.511Z,5.50
2018-12-25T05:56:11.463Z,5.50
2018-12-25T05:58:40.455Z,5.60
2018-12-25T06:01:09.735Z,5.50
2018-12-25T06:03:38.695Z,5.60
2018-12-25T06:06:07.664Z,5.60
2018-12-25T06:08:36.567Z,5.60
2018-12-25T06:11:05.626Z,5.60
2018-12-25T06:13:34.615Z,5.60
2018-12-25T06:16:03.479Z,5.60
2018-12-25T06:18:32.363Z,5.60
2018-12-25T06:21:01.259Z,5.60
2018-12-25T06:23:30.120Z,5.60
2018-12-25T06:25:59.324Z,5.60
2018-12-25T06:28:28.195Z,5.60
2018-12-25T06:30:57.121Z,5.60
2018-12-25T06:33:26.247Z,5.60
2018-12-25T06:35:55.203Z,5.60
2018-12-25T06:38:24.155Z,5.60
2018-12-25T06:40:53.172Z,5.60
2018-12-25T06:43:22.144Z,5.60
2018-12-25T06:45:51.112Z,5.60
2018-12-25T06:48:20.088Z,5.60
2018-12-25T06:50:49.116Z,5.60
2018-12-25T06:53:18.067Z,5.60
2018-12-25T06:55:46.952Z,5.60
2018-12-25T06:58:15.924Z,5.60
2018-12-25T07:00:44.868Z,5.60
2018-12-25T07:03:13.919Z,5.60
2018-12-25T07:05:42.892Z,5.60
2018-12-25T07:08:11.866Z,5.60
2018-12-25T07:10:40.760Z,5.60
2018-12-25T07:13:09.757Z,5.70
2018-12-25T07:15:38.876Z,5.60
2018-12-25T07:18:07.844Z,5.70
2018-12-25T07:20:36.815Z,5.70
2018-12-25T07:23:07.776Z,5.60
2018-12-25T07:25:36.735Z,5.70
2018-12-25T07:28:05.767Z,5.60
2018-12-25T07:30:34.787Z,5.70
2018-12-25T07:33:03.663Z,5.70
2018-12-25T07:35:32.565Z,5.60
2018-12-25T07:38:01.527Z,5.60
2018-12-25T07:40:30.403Z,5.70
2018-12-25T07:43:00.483Z,5.70
2018-12-25T07:45:29.419Z,5.70
2018-12-25T07:47:58.364Z,5.70
2018-12-25T07:50:27.297Z,5.70
2018-12-25T07:52:56.356Z,5.70
2018-12-25T07:55:25.231Z,5.70
2018-12-25T07:57:54.100Z,5.80
2018-12-25T08:00:23.092Z,5.70
2018-12-25T08:02:51.987Z,5.80
2018-12-25T08:05:21.016Z,5.80
2018-12-25T08:07:49.888Z,5.80
2018-12-25T08:10:18.867Z,5.80
2018-12-25T08:12:48.068Z,5.80
2018-12-25T08:15:17.408Z,5.80
2018-12-25T08:17:46.357Z,5.80
2018-12-25T08:20:15.328Z,5.80
2018-12-25T08:22:44.200Z,5.90
2018-12-25T08:25:13.157Z,5.90
2018-12-25T08:27:42.132Z,5.90
2018-12-25T08:30:11.002Z,5.90
2018-12-25T08:32:39.864Z,6.00
2018-12-25T08:35:08.753Z,6.00
2018-12-25T08:37:37.856Z,6.00
2018-12-25T08:40:06.804Z,6.10
2018-12-25T08:42:35.857Z,6.10
2018-12-25T08:45:05.013Z,6.10
2018-12-25T08:47:34.105Z,6.10
2018-12-25T08:50:03.378Z,6.10
2018-12-25T08:52:32.357Z,6.10
2018-12-25T08:55:01.221Z,6.10
2018-12-25T08:57:30.085Z,6.10
2018-12-25T08:59:58.997Z,6.20
2018-12-25T09:02:27.936Z,6.20
2018-12-25T09:04:56.961Z,6.20
2018-12-25T09:07:25.845Z,6.20
2018-12-25T09:09:55.064Z,6.20
2018-12-25T09:12:24.036Z,6.20
2018-12-25T09:14:52.925Z,6.10
2018-12-25T09:17:22.005Z,6.20
2018-12-25T09:19:50.950Z,6.50
2018-12-25T09:22:19.829Z,6.90
2018-12-25T09:24:48.790Z,7.20
2018-12-25T09:27:17.762Z,7.30
2018-12-25T09:29:46.642Z,7.20
2018-12-25T09:32:15.534Z,6.90
2018-12-25T09:34:44.698Z,7.00
2018-12-25T09:37:13.969Z,7.20
2018-12-25T09:39:42.866Z,7.50
2018-12-25T09:42:11.749Z,7.60
2018-12-25T09:44:40.826Z,8.00
2018-12-25T09:47:09.837Z,8.20
2018-12-25T09:49:38.742Z,8.40
2018-12-25T09:52:08.053Z,8.90
2018-12-25T09:54:37.010Z,9.30
2018-12-25T09:57:05.998Z,9.80
2018-12-25T09:59:34.879Z,9.90
2018-12-25T10:02:04.114Z,10.30
2018-12-25T10:04:33.417Z,10.40
2018-12-25T10:07:02.303Z,9.60
2018-12-25T10:09:31.566Z,9.40
2018-12-25T10:12:00.674Z,9.00
2018-12-25T10:14:29.838Z,8.60
2018-12-25T10:16:58.986Z,8.60
2018-12-25T10:19:28.014Z,8.60
2018-12-25T10:22:02.955Z,8.50
2018-12-25T10:24:27.650Z,8.40
2018-12-25T10:26:56.594Z,8.40
2018-12-25T10:29:25.762Z,8.40
2018-12-25T10:31:54.798Z,8.30
2018-12-25T10:34:23.765Z,8.30
2018-12-25T10:36:52.651Z,8.30
2018-12-25T10:39:21.695Z,8.20
2018-12-25T10:41:50.718Z,8.10
2018-12-25T10:44:19.739Z,8.00
2018-12-25T10:46:48.702Z,7.90
2018-12-25T10:49:17.674Z,8.00
2018-12-25T10:51:46.641Z,8.10
2018-12-25T10:54:15.674Z,8.20
2018-12-25T10:56:44.687Z,8.20
2018-12-25T10:59:14.038Z,8.20
2018-12-25T11:01:42.991Z,8.10
2018-12-25T11:04:12.049Z,8.20
2018-12-25T11:06:40.914Z,8.20
2018-12-25T11:09:09.787Z,8.40
2018-12-25T11:11:38.734Z,8.20
2018-12-25T11:14:07.619Z,8.30
2018-12-25T11:16:36.499Z,8.20
2018-12-25T11:19:05.461Z,8.40
2018-12-25T11:21:34.515Z,8.50
2018-12-25T11:24:03.551Z,8.40
2018-12-25T11:26:32.503Z,8.20
2018-12-25T11:29:01.459Z,8.20
2018-12-25T11:31:30.356Z,8.30
2018-12-25T11:33:59.224Z,8.20
2018-12-25T11:36:28.103Z,8.00
2018-12-25T11:38:57.017Z,8.30
2018-12-25T11:41:25.959Z,8.70
2018-12-25T11:43:55.168Z,8.80
2018-12-25T11:46:24.115Z,9.00
2018-12-25T11:48:52.988Z,8.90
2018-12-25T11:51:22.008Z,8.80
2018-12-25T11:53:50.959Z,8.60
2018-12-25T11:56:19.923Z,8.80
2018-12-25T11:58:48.883Z,8.60
2018-12-25T12:01:17.783Z,8.20
2018-12-25T12:03:46.743Z,8.20
2018-12-25T12:06:15.739Z,8.20
2018-12-25T12:08:44.615Z,8.10
2018-12-25T12:11:13.500Z,8.10
2018-12-25T12:13:42.480Z,8.10
2018-12-25T12:16:11.452Z,8.00
2018-12-25T12:18:40.880Z,8.00
2018-12-25T12:21:10.220Z,7.90
2018-12-25T12:23:39.196Z,7.80
2018-12-25T12:26:08.383Z,7.90
2018-12-25T12:28:37.376Z,7.70
2018-12-25T12:31:06.400Z,7.70
2018-12-25T12:33:35.696Z,7.70
2018-12-25T12:36:04.652Z,7.80
2018-12-25T12:38:33.596Z,7.90
2018-12-25T12:41:02.648Z,8.00
2018-12-25T12:43:31.536Z,8.00
2018-12-25T12:46:00.436Z,8.10
2018-12-25T12:48:29.312Z,8.10
2018-12-25T12:50:58.233Z,8.00
2018-12-25T12:53:27.092Z,8.00
2018-12-25T12:55:56.376Z,8.10
2018-12-25T12:58:25.344Z,8.20
2018-12-25T13:00:54.285Z,8.10
2018-12-25T13:03:23.337Z,7.90
2018-12-25T13:05:52.200Z,7.90
2018-12-25T13:08:21.156Z,7.90
2018-12-25T13:10:50.494Z,7.80
2018-12-25T13:13:19.405Z,7.70
2018-12-25T13:15:48.372Z,7.70
2018-12-25T13:18:17.332Z,7.70
2018-12-25T13:20:46.765Z,7.80
2018-12-25T13:23:15.612Z,7.80
2018-12-25T13:25:44.501Z,7.90
2018-12-25T13:28:13.360Z,8.00
2018-12-25T13:30:42.221Z,8.00
2018-12-25T13:33:11.333Z,7.90
2018-12-25T13:35:40.277Z,7.90
2018-12-25T13:38:09.204Z,7.80
2018-12-25T13:40:38.089Z,7.80
2018-12-25T13:43:06.984Z,7.70
2018-12-25T13:45:35.908Z,7.70
2018-12-25T13:48:05.041Z,7.70
2018-12-25T13:50:34.089Z,7.70
2018-12-25T13:53:03.520Z,7.70
2018-12-25T13:55:32.553Z,7.70
2018-12-25T13:58:01.553Z,7.70
2018-12-25T14:00:30.517Z,7.70
2018-12-25T14:02:59.400Z,7.70
2018-12-25T14:05:28.361Z,7.60
2018-12-25T14:07:57.253Z,7.50
2018-12-25T14:10:26.161Z,7.40
2018-12-25T14:12:55.101Z,7.40
2018-12-25T14:15:24.761Z,7.30
2018-12-25T14:17:53.837Z,7.30
2018-12-25T14:20:22.785Z,7.30
2018-12-25T14:22:51.662Z,7.20
2018-12-25T14:25:20.710Z,7.20
2018-12-25T14:27:49.670Z,7.20
2018-12-25T14:30:18.709Z,7.20
2018-12-25T14:32:47.618Z,7.20
2018-12-25T14:35:16.590Z,7.20
2018-12-25T14:37:45.623Z,7.20
2018-12-25T14:40:14.494Z,7.20
2018-12-25T14:42:43.698Z,7.20
2018-12-25T14:45:12.673Z,7.20
2018-12-25T14:47:41.654Z,7.20
2018-12-25T14:50:10.526Z,7.20
2018-12-25T14:52:39.778Z,7.10
2018-12-25T14:55:08.714Z,7.20
2018-12-25T14:57:37.737Z,7.10
2018-12-25T15:00:08.278Z,7.10
2018-12-25T15:02:37.150Z,7.10
2018-12-25T15:05:06.098Z,7.00
2018-12-25T15:07:35.338Z,7.00
2018-12-25T15:10:04.850Z,7.00
2018-12-25T15:12:33.718Z,6.90
2018-12-25T15:15:02.934Z,6.90
2018-12-25T15:17:31.962Z,6.90
2018-12-25T15:20:00.842Z,6.80
2018-12-25T15:22:29.715Z,6.80
2018-12-25T15:24:58.879Z,6.80
2018-12-25T15:27:27.842Z,6.80
2018-12-25T15:29:57.171Z,6.80
2018-12-25T15:32:26.070Z,6.80
2018-12-25T15:34:56.555Z,6.80
2018-12-25T15:37:25.467Z,6.80
2018-12-25T15:39:54.511Z,6.80
2018-12-25T15:42:23.467Z,6.70
2018-12-25T15:44:52.415Z,6.80
2018-12-25T15:47:21.642Z,6.70
2018-12-25T15:49:50.597Z,6.70
2018-12-25T15:52:19.571Z,6.70
2018-12-25T15:54:48.467Z,6.70
2018-12-25T15:57:17.359Z,6.70
2018-12-25T15:59:46.382Z,6.70
2018-12-25T16:02:15.359Z,6.70
2018-12-25T16:04:44.343Z,6.70
2018-12-25T16:07:13.296Z,6.60
2018-12-25T16:09:42.199Z,6.60
2018-12-25T16:12:11.092Z,6.50
2018-12-25T16:14:39.955Z,6.50
2018-12-25T16:17:08.905Z,6.50
2018-12-25T16:19:38.132Z,6.50
2018-12-25T16:22:07.230Z,6.50
2018-12-25T16:24:36.180Z,6.50
2018-12-25T16:27:06.745Z,6.50
2018-12-25T16:29:35.743Z,6.50
2018-12-25T16:32:04.712Z,6.50
2018-12-25T16:34:33.684Z,6.50
2018-12-25T16:37:02.564Z,6.40
2018-12-25T16:39:31.532Z,6.40
2018-12-25T16:42:00.717Z,6.40
2018-12-25T16:44:29.596Z,6.40
2018-12-25T16:46:58.816Z,6.40
2018-12-25T16:49:27.704Z,6.40
2018-12-25T16:51:56.665Z,6.30
2018-12-25T16:54:25.537Z,6.30
2018-12-25T16:56:54.433Z,6.30
2018-12-25T16:59:23.392Z,6.30
2018-12-25T17:01:52.277Z,6.30
2018-12-25T17:04:21.233Z,6.30
2018-12-25T17:06:50.265Z,6.30
2018-12-25T17:09:19.413Z,6.30
2018-12-25T17:11:48.385Z,6.30
2018-12-25T17:14:17.369Z,6.30
2018-12-25T17:16:46.443Z,6.30
2018-12-25T17:19:15.559Z,6.30
2018-12-25T17:21:44.453Z,6.20
2018-12-25T17:24:13.669Z,6.30
2018-12-25T17:26:42.569Z,6.30
2018-12-25T17:29:11.521Z,6.30
2018-12-25T17:31:40.933Z,6.20
2018-12-25T17:34:09.830Z,6.20
2018-12-25T17:36:38.721Z,6.20
2018-12-25T17:39:08.342Z,6.20
2018-12-25T17:41:37.234Z,6.10
2018-12-25T17:44:06.190Z,6.10
2018-12-25T17:46:35.162Z,6.10
2018-12-25T17:49:04.114Z,6.10
2018-12-25T17:51:33.010Z,6.00
2018-12-25T17:54:06.814Z,6.10
2018-12-25T17:56:37.709Z,6.00
2018-12-25T17:59:04.335Z,6.10
2018-12-25T18:01:33.643Z,6.10
2018-12-25T18:04:02.644Z,6.10
2018-12-25T18:06:31.535Z,6.10
2018-12-25T18:09:00.486Z,6.00
2018-12-25T18:11:29.378Z,6.00
2018-12-25T18:13:58.320Z,6.00
2018-12-25T18:16:27.255Z,6.00
2018-12-25T18:18:56.207Z,6.00
2018-12-25T18:21:25.176Z,6.00
2018-12-25T18:23:54.059Z,6.00
2018-12-25T18:26:23.871Z,6.10
2018-12-25T18:28:52.903Z,6.10
2018-12-25T18:31:21.939Z,6.10
2018-12-25T18:33:50.899Z,6.00
2018-12-25T18:36:20.152Z,6.00
2018-12-25T18:38:49.275Z,6.00
2018-12-25T18:41:18.247Z,6.00
2018-12-25T18:43:47.356Z,6.00
2018-12-25T18:46:16.532Z,6.00
2018-12-25T18:48:45.507Z,6.00
2018-12-25T18:51:14.448Z,6.00
2018-12-25T18:53:43.326Z,6.00
2018-12-25T18:56:12.360Z,6.00
2018-12-25T18:58:41.319Z,6.00
2018-12-25T19:01:10.220Z,5.90
2018-12-25T19:03:39.192Z,5.90
2018-12-25T19:06:08.083Z,5.90
2018-12-25T19:08:37.396Z,5.90
2018-12-25T19:11:06.444Z,5.90
2018-12-25T19:13:35.406Z,5.90
2018-12-25T19:16:05.460Z,5.80
2018-12-25T19:18:34.823Z,5.80
2018-12-25T19:21:03.884Z,5.80
2018-12-25T19:23:33.098Z,5.80
2018-12-25T19:26:02.116Z,5.80
2018-12-25T19:28:31.068Z,5.80
2018-12-25T19:31:00.040Z,5.80
2018-12-25T19:33:29.812Z,5.80
2018-12-25T19:35:58.872Z,5.80
2018-12-25T19:38:27.953Z,5.70
2018-12-25T19:40:57.024Z,5.70
2018-12-25T19:43:26.056Z,5.80
2018-12-25T19:45:55.075Z,5.80
2018-12-25T19:48:24.072Z,5.70
2018-12-25T19:50:53.100Z,5.70
2018-12-25T19:53:22.120Z,5.70
2018-12-25T19:55:51.168Z,5.70
2018-12-25T19:58:20.129Z,5.60
2018-12-25T20:00:49.213Z,5.70
2018-12-25T20:03:32.992Z,5.60
2018-12-25T20:06:45.037Z,5.70
2018-12-25T20:09:46.886Z,5.60
2018-12-25T20:12:59.888Z,5.60
